sensor_id;sensor_type;location;lat;lon;timestamp;P1;durP1;ratioP1;P2;durP2;ratioP2
37859;SDS011;23698;52.014;5.190;2023-04-01T00:02:15;57.80;;;15.93;;
37859;SDS011;23698;52.014;5.190;2023-04-01T00:05:01;54.83;;;16.95;;
37859;SDS011;23698;52.014;5.190;2023-04-01T00:07:47;50.53;;;16.45;;
37859;SDS011;23698;52.014;5.190;2023-04-01T00:10:33;48.25;;;15.75;;
37859;SDS011;23698;52.014;5.190;2023-04-01T00:13:20;55.95;;;18.15;;
37859;SDS011;23698;52.014;5.190;2023-04-01T00:16:06;50.63;;;17.45;;
37859;SDS011;23698;52.014;5.190;2023-04-01T00:19:06;52.58;;;18.95;;
37859;SDS011;23698;52.014;5.190;2023-04-01T00:21:52;50.28;;;18.23;;
37859;SDS011;23698;52.014;5.190;2023-04-01T00:24:38;53.05;;;17.92;;
37859;SDS011;23698;52.014;5.190;2023-04-01T00:27:25;45.47;;;18.10;;
37859;SDS011;23698;52.014;5.190;2023-04-01T00:30:11;48.47;;;18.98;;
37859;SDS011;23698;52.014;5.190;2023-04-01T00:32:58;55.97;;;19.67;;
37859;SDS011;23698;52.014;5.190;2023-04-01T00:35:46;55.50;;;18.67;;
37859;SDS011;23698;52.014;5.190;2023-04-01T00:38:33;52.60;;;19.30;;
37859;SDS011;23698;52.014;5.190;2023-04-01T00:41:19;57.20;;;19.42;;
37859;SDS011;23698;52.014;5.190;2023-04-01T00:44:16;56.03;;;20.77;;
37859;SDS011;23698;52.014;5.190;2023-04-01T00:47:05;55.47;;;19.98;;
37859;SDS011;23698;52.014;5.190;2023-04-01T00:49:52;58.65;;;20.55;;
37859;SDS011;23698;52.014;5.190;2023-04-01T00:52:41;60.85;;;19.58;;
37859;SDS011;23698;52.014;5.190;2023-04-01T00:55:29;64.03;;;20.55;;
37859;SDS011;23698;52.014;5.190;2023-04-01T00:58:18;51.03;;;18.63;;
37859;SDS011;23698;52.014;5.190;2023-04-01T01:01:10;59.22;;;17.38;;
37859;SDS011;23698;52.014;5.190;2023-04-01T01:03:57;62.15;;;18.25;;
37859;SDS011;23698;52.014;5.190;2023-04-01T01:06:46;53.72;;;18.45;;
37859;SDS011;23698;52.014;5.190;2023-04-01T01:09:41;60.13;;;18.58;;
37859;SDS011;23698;52.014;5.190;2023-04-01T01:12:35;52.22;;;18.60;;
37859;SDS011;23698;52.014;5.190;2023-04-01T01:15:27;43.40;;;15.27;;
37859;SDS011;23698;52.014;5.190;2023-04-01T01:18:19;44.88;;;15.40;;
37859;SDS011;23698;52.014;5.190;2023-04-01T01:21:21;39.78;;;15.85;;
37859;SDS011;23698;52.014;5.190;2023-04-01T01:24:30;50.13;;;18.42;;
37859;SDS011;23698;52.014;5.190;2023-04-01T01:27:37;51.80;;;17.45;;
37859;SDS011;23698;52.014;5.190;2023-04-01T01:30:39;58.38;;;19.65;;
37859;SDS011;23698;52.014;5.190;2023-04-01T01:33:33;58.97;;;21.15;;
37859;SDS011;23698;52.014;5.190;2023-04-01T01:36:33;52.58;;;19.45;;
37859;SDS011;23698;52.014;5.190;2023-04-01T01:39:23;51.60;;;20.95;;
37859;SDS011;23698;52.014;5.190;2023-04-01T01:42:15;52.20;;;19.90;;
37859;SDS011;23698;52.014;5.190;2023-04-01T01:45:04;51.22;;;18.13;;
37859;SDS011;23698;52.014;5.190;2023-04-01T01:47:54;46.03;;;18.50;;
37859;SDS011;23698;52.014;5.190;2023-04-01T01:50:43;48.38;;;17.50;;
37859;SDS011;23698;52.014;5.190;2023-04-01T01:53:34;47.77;;;19.13;;
37859;SDS011;23698;52.014;5.190;2023-04-01T01:56:22;55.17;;;19.30;;
37859;SDS011;23698;52.014;5.190;2023-04-01T01:59:12;30.00;;;12.90;;
37859;SDS011;23698;52.014;5.190;2023-04-01T02:01:59;34.05;;;12.30;;
37859;SDS011;23698;52.014;5.190;2023-04-01T02:04:52;25.92;;;10.63;;
37859;SDS011;23698;52.014;5.190;2023-04-01T02:07:39;26.73;;;9.80;;
37859;SDS011;23698;52.014;5.190;2023-04-01T02:10:32;28.25;;;10.07;;
37859;SDS011;23698;52.014;5.190;2023-04-01T02:13:24;22.77;;;8.98;;
37859;SDS011;23698;52.014;5.190;2023-04-01T02:16:17;26.73;;;9.57;;
37859;SDS011;23698;52.014;5.190;2023-04-01T02:19:07;28.27;;;9.20;;
37859;SDS011;23698;52.014;5.190;2023-04-01T02:21:59;29.92;;;10.38;;
37859;SDS011;23698;52.014;5.190;2023-04-01T02:24:48;23.67;;;10.30;;
37859;SDS011;23698;52.014;5.190;2023-04-01T02:27:39;27.02;;;9.85;;
37859;SDS011;23698;52.014;5.190;2023-04-01T02:30:28;26.55;;;10.80;;
37859;SDS011;23698;52.014;5.190;2023-04-01T02:33:17;25.95;;;10.82;;
37859;SDS011;23698;52.014;5.190;2023-04-01T02:36:10;28.60;;;12.77;;
37859;SDS011;23698;52.014;5.190;2023-04-01T02:38:58;30.92;;;12.13;;
37859;SDS011;23698;52.014;5.190;2023-04-01T02:41:47;27.90;;;11.25;;
37859;SDS011;23698;52.014;5.190;2023-04-01T02:44:35;31.70;;;11.70;;
37859;SDS011;23698;52.014;5.190;2023-04-01T02:47:21;31.13;;;12.00;;
37859;SDS011;23698;52.014;5.190;2023-04-01T02:50:08;31.60;;;12.80;;
37859;SDS011;23698;52.014;5.190;2023-04-01T02:52:55;33.95;;;13.23;;
37859;SDS011;23698;52.014;5.190;2023-04-01T02:55:41;39.30;;;12.90;;
37859;SDS011;23698;52.014;5.190;2023-04-01T02:58:27;31.40;;;13.30;;
37859;SDS011;23698;52.014;5.190;2023-04-01T03:01:15;37.70;;;13.15;;
37859;SDS011;23698;52.014;5.190;2023-04-01T03:04:02;36.00;;;14.25;;
37859;SDS011;23698;52.014;5.190;2023-04-01T03:06:49;33.67;;;13.23;;
37859;SDS011;23698;52.014;5.190;2023-04-01T03:09:36;36.95;;;13.32;;
37859;SDS011;23698;52.014;5.190;2023-04-01T03:12:22;34.80;;;13.68;;
37859;SDS011;23698;52.014;5.190;2023-04-01T03:15:10;34.08;;;13.85;;
37859;SDS011;23698;52.014;5.190;2023-04-01T03:17:58;39.50;;;12.88;;
37859;SDS011;23698;52.014;5.190;2023-04-01T03:20:45;35.40;;;11.85;;
37859;SDS011;23698;52.014;5.190;2023-04-01T03:23:31;32.20;;;13.13;;
37859;SDS011;23698;52.014;5.190;2023-04-01T03:26:18;36.75;;;12.88;;
37859;SDS011;23698;52.014;5.190;2023-04-01T03:29:06;33.85;;;13.60;;
37859;SDS011;23698;52.014;5.190;2023-04-01T03:31:52;36.28;;;12.68;;
37859;SDS011;23698;52.014;5.190;2023-04-01T03:34:40;40.95;;;12.82;;
37859;SDS011;23698;52.014;5.190;2023-04-01T03:37:26;40.95;;;13.60;;
37859;SDS011;23698;52.014;5.190;2023-04-01T03:40:13;48.88;;;14.70;;
37859;SDS011;23698;52.014;5.190;2023-04-01T03:42:59;48.95;;;17.85;;
37859;SDS011;23698;52.014;5.190;2023-04-01T03:45:47;39.78;;;13.90;;
37859;SDS011;23698;52.014;5.190;2023-04-01T03:48:34;43.20;;;13.10;;
37859;SDS011;23698;52.014;5.190;2023-04-01T03:51:22;35.30;;;13.75;;
37859;SDS011;23698;52.014;5.190;2023-04-01T03:54:09;46.72;;;14.48;;
37859;SDS011;23698;52.014;5.190;2023-04-01T03:56:56;45.42;;;14.57;;
37859;SDS011;23698;52.014;5.190;2023-04-01T03:59:43;56.83;;;15.98;;
37859;SDS011;23698;52.014;5.190;2023-04-01T04:02:29;48.83;;;16.45;;
37859;SDS011;23698;52.014;5.190;2023-04-01T04:05:15;53.40;;;15.32;;
37859;SDS011;23698;52.014;5.190;2023-04-01T04:08:03;48.97;;;15.23;;
37859;SDS011;23698;52.014;5.190;2023-04-01T04:10:54;45.58;;;15.65;;
37859;SDS011;23698;52.014;5.190;2023-04-01T04:16:28;44.75;;;15.73;;
37859;SDS011;23698;52.014;5.190;2023-04-01T04:19:18;57.25;;;24.55;;
37859;SDS011;23698;52.014;5.190;2023-04-01T04:22:05;40.50;;;13.30;;
37859;SDS011;23698;52.014;5.190;2023-04-01T04:24:53;36.65;;;13.35;;
37859;SDS011;23698;52.014;5.190;2023-04-01T04:27:39;31.25;;;11.32;;
37859;SDS011;23698;52.014;5.190;2023-04-01T04:30:29;35.40;;;13.30;;
37859;SDS011;23698;52.014;5.190;2023-04-01T04:33:16;32.80;;;12.45;;
37859;SDS011;23698;52.014;5.190;2023-04-01T04:36:02;30.70;;;12.15;;
37859;SDS011;23698;52.014;5.190;2023-04-01T04:38:50;32.42;;;12.15;;
37859;SDS011;23698;52.014;5.190;2023-04-01T04:41:38;32.58;;;12.27;;
37859;SDS011;23698;52.014;5.190;2023-04-01T04:44:24;31.65;;;11.93;;
37859;SDS011;23698;52.014;5.190;2023-04-01T04:47:11;34.63;;;13.15;;
37859;SDS011;23698;52.014;5.190;2023-04-01T04:49:58;34.20;;;12.45;;
37859;SDS011;23698;52.014;5.190;2023-04-01T04:52:44;29.85;;;11.73;;
37859;SDS011;23698;52.014;5.190;2023-04-01T04:55:31;33.05;;;11.68;;
37859;SDS011;23698;52.014;5.190;2023-04-01T04:58:36;58.88;;;25.35;;
37859;SDS011;23698;52.014;5.190;2023-04-01T05:01:25;30.02;;;11.40;;
37859;SDS011;23698;52.014;5.190;2023-04-01T05:04:11;30.98;;;12.10;;
37859;SDS011;23698;52.014;5.190;2023-04-01T05:06:58;34.03;;;13.75;;
37859;SDS011;23698;52.014;5.190;2023-04-01T05:09:45;36.17;;;13.00;;
37859;SDS011;23698;52.014;5.190;2023-04-01T05:12:32;28.52;;;11.25;;
37859;SDS011;23698;52.014;5.190;2023-04-01T05:15:21;29.67;;;11.60;;
37859;SDS011;23698;52.014;5.190;2023-04-01T05:18:08;31.90;;;11.70;;
37859;SDS011;23698;52.014;5.190;2023-04-01T05:20:54;32.30;;;11.13;;
37859;SDS011;23698;52.014;5.190;2023-04-01T05:23:41;29.25;;;11.85;;
37859;SDS011;23698;52.014;5.190;2023-04-01T05:26:27;33.45;;;12.23;;
37859;SDS011;23698;52.014;5.190;2023-04-01T05:29:19;31.45;;;11.50;;
37859;SDS011;23698;52.014;5.190;2023-04-01T05:32:14;27.38;;;12.00;;
37859;SDS011;23698;52.014;5.190;2023-04-01T05:35:01;33.50;;;13.38;;
37859;SDS011;23698;52.014;5.190;2023-04-01T05:37:48;35.03;;;13.20;;
37859;SDS011;23698;52.014;5.190;2023-04-01T05:40:34;38.28;;;12.95;;
37859;SDS011;23698;52.014;5.190;2023-04-01T05:43:21;35.30;;;14.57;;
37859;SDS011;23698;52.014;5.190;2023-04-01T05:46:08;39.90;;;16.85;;
37859;SDS011;23698;52.014;5.190;2023-04-01T05:49:05;34.38;;;14.70;;
37859;SDS011;23698;52.014;5.190;2023-04-01T05:51:52;34.50;;;14.43;;
37859;SDS011;23698;52.014;5.190;2023-04-01T05:54:38;32.15;;;15.05;;
37859;SDS011;23698;52.014;5.190;2023-04-01T05:57:25;34.00;;;13.82;;
37859;SDS011;23698;52.014;5.190;2023-04-01T06:00:12;30.13;;;12.82;;
37859;SDS011;23698;52.014;5.190;2023-04-01T06:02:59;31.02;;;13.48;;
37859;SDS011;23698;52.014;5.190;2023-04-01T06:05:47;32.90;;;13.10;;
37859;SDS011;23698;52.014;5.190;2023-04-01T06:08:34;32.78;;;13.40;;
37859;SDS011;23698;52.014;5.190;2023-04-01T06:11:23;30.90;;;13.77;;
37859;SDS011;23698;52.014;5.190;2023-04-01T06:14:21;30.85;;;13.43;;
37859;SDS011;23698;52.014;5.190;2023-04-01T06:17:20;30.38;;;12.55;;
37859;SDS011;23698;52.014;5.190;2023-04-01T06:20:18;36.00;;;16.73;;
37859;SDS011;23698;52.014;5.190;2023-04-01T06:23:18;29.25;;;14.27;;
37859;SDS011;23698;52.014;5.190;2023-04-01T06:26:20;34.05;;;15.10;;
37859;SDS011;23698;52.014;5.190;2023-04-01T06:29:32;30.80;;;14.25;;
37859;SDS011;23698;52.014;5.190;2023-04-01T06:32:37;35.08;;;16.80;;
37859;SDS011;23698;52.014;5.190;2023-04-01T06:35:45;35.72;;;17.10;;
37859;SDS011;23698;52.014;5.190;2023-04-01T06:38:54;35.75;;;16.20;;
37859;SDS011;23698;52.014;5.190;2023-04-01T06:41:56;39.25;;;18.60;;
37859;SDS011;23698;52.014;5.190;2023-04-01T06:44:56;43.63;;;18.50;;
37859;SDS011;23698;52.014;5.190;2023-04-01T06:48:16;45.42;;;18.60;;
37859;SDS011;23698;52.014;5.190;2023-04-01T06:51:29;44.63;;;18.73;;
37859;SDS011;23698;52.014;5.190;2023-04-01T06:55:00;49.22;;;19.77;;
37859;SDS011;23698;52.014;5.190;2023-04-01T06:58:37;49.85;;;20.02;;
37859;SDS011;23698;52.014;5.190;2023-04-01T07:01:29;38.80;;;18.77;;
37859;SDS011;23698;52.014;5.190;2023-04-01T07:04:22;45.40;;;18.60;;
37859;SDS011;23698;52.014;5.190;2023-04-01T07:07:14;46.90;;;18.70;;
37859;SDS011;23698;52.014;5.190;2023-04-01T07:10:15;46.78;;;18.63;;
37859;SDS011;23698;52.014;5.190;2023-04-01T07:13:36;44.28;;;19.00;;
37859;SDS011;23698;52.014;5.190;2023-04-01T07:16:43;45.78;;;20.13;;
37859;SDS011;23698;52.014;5.190;2023-04-01T07:19:34;39.05;;;17.75;;
37859;SDS011;23698;52.014;5.190;2023-04-01T07:22:26;40.25;;;17.23;;
37859;SDS011;23698;52.014;5.190;2023-04-01T07:25:30;35.42;;;15.45;;
37859;SDS011;23698;52.014;5.190;2023-04-01T07:28:59;39.78;;;16.10;;
37859;SDS011;23698;52.014;5.190;2023-04-01T07:31:59;35.50;;;15.82;;
37859;SDS011;23698;52.014;5.190;2023-04-01T07:34:59;37.30;;;16.13;;
37859;SDS011;23698;52.014;5.190;2023-04-01T07:37:58;43.70;;;16.98;;
37859;SDS011;23698;52.014;5.190;2023-04-01T07:41:00;41.05;;;18.00;;
37859;SDS011;23698;52.014;5.190;2023-04-01T07:43:58;41.03;;;17.65;;
37859;SDS011;23698;52.014;5.190;2023-04-01T07:46:55;41.40;;;17.92;;
37859;SDS011;23698;52.014;5.190;2023-04-01T07:49:54;40.90;;;16.83;;
37859;SDS011;23698;52.014;5.190;2023-04-01T07:52:52;40.15;;;17.23;;
37859;SDS011;23698;52.014;5.190;2023-04-01T07:55:49;32.45;;;16.33;;
37859;SDS011;23698;52.014;5.190;2023-04-01T07:58:50;34.83;;;16.08;;
37859;SDS011;23698;52.014;5.190;2023-04-01T08:02:15;32.22;;;15.20;;
37859;SDS011;23698;52.014;5.190;2023-04-01T08:05:14;32.35;;;16.42;;
37859;SDS011;23698;52.014;5.190;2023-04-01T08:08:10;39.60;;;17.30;;
37859;SDS011;23698;52.014;5.190;2023-04-01T08:11:27;38.97;;;17.50;;
37859;SDS011;23698;52.014;5.190;2023-04-01T08:15:03;42.90;;;19.10;;
37859;SDS011;23698;52.014;5.190;2023-04-01T08:18:06;38.97;;;17.98;;
37859;SDS011;23698;52.014;5.190;2023-04-01T08:21:02;45.53;;;19.40;;
37859;SDS011;23698;52.014;5.190;2023-04-01T08:23:51;51.60;;;19.90;;
37859;SDS011;23698;52.014;5.190;2023-04-01T08:26:42;42.15;;;20.00;;
37859;SDS011;23698;52.014;5.190;2023-04-01T08:29:33;52.58;;;18.95;;
37859;SDS011;23698;52.014;5.190;2023-04-01T08:32:28;45.60;;;19.42;;
37859;SDS011;23698;52.014;5.190;2023-04-01T08:35:18;43.50;;;20.05;;
37859;SDS011;23698;52.014;5.190;2023-04-01T08:38:19;42.95;;;17.63;;
37859;SDS011;23698;52.014;5.190;2023-04-01T08:41:17;46.40;;;17.75;;
37859;SDS011;23698;52.014;5.190;2023-04-01T08:45:06;47.45;;;18.58;;
37859;SDS011;23698;52.014;5.190;2023-04-01T08:48:19;40.28;;;17.92;;
37859;SDS011;23698;52.014;5.190;2023-04-01T08:54:46;59.90;;;25.23;;
37859;SDS011;23698;52.014;5.190;2023-04-01T08:58:11;50.22;;;20.63;;
37859;SDS011;23698;52.014;5.190;2023-04-01T09:01:36;44.45;;;20.13;;
37859;SDS011;23698;52.014;5.190;2023-04-01T09:08:00;38.58;;;17.48;;
37859;SDS011;23698;52.014;5.190;2023-04-01T09:10:59;35.83;;;17.30;;
37859;SDS011;23698;52.014;5.190;2023-04-01T09:14:21;38.88;;;15.82;;
37859;SDS011;23698;52.014;5.190;2023-04-01T09:17:39;35.50;;;15.50;;
37859;SDS011;23698;52.014;5.190;2023-04-01T09:20:49;50.72;;;25.42;;
37859;SDS011;23698;52.014;5.190;2023-04-01T09:24:08;30.55;;;13.80;;
37859;SDS011;23698;52.014;5.190;2023-04-01T09:30:19;31.50;;;14.40;;
37859;SDS011;23698;52.014;5.190;2023-04-01T09:33:42;23.50;;;11.88;;
37859;SDS011;23698;52.014;5.190;2023-04-01T09:37:07;24.10;;;12.40;;
37859;SDS011;23698;52.014;5.190;2023-04-01T09:40:14;24.23;;;12.48;;
37859;SDS011;23698;52.014;5.190;2023-04-01T09:43:15;23.77;;;12.55;;
37859;SDS011;23698;52.014;5.190;2023-04-01T09:46:11;27.45;;;13.55;;
37859;SDS011;23698;52.014;5.190;2023-04-01T09:52:23;24.27;;;12.38;;
37859;SDS011;23698;52.014;5.190;2023-04-01T09:55:30;22.77;;;11.77;;
37859;SDS011;23698;52.014;5.190;2023-04-01T09:58:45;19.50;;;11.98;;
37859;SDS011;23698;52.014;5.190;2023-04-01T10:02:26;23.98;;;13.63;;
37859;SDS011;23698;52.014;5.190;2023-04-01T10:05:48;23.30;;;13.52;;
37859;SDS011;23698;52.014;5.190;2023-04-01T10:19:34;20.85;;;12.32;;
37859;SDS011;23698;52.014;5.190;2023-04-01T10:22:56;19.00;;;12.18;;
37859;SDS011;23698;52.014;5.190;2023-04-01T10:26:05;17.35;;;11.57;;
37859;SDS011;23698;52.014;5.190;2023-04-01T10:29:24;20.02;;;10.55;;
37859;SDS011;23698;52.014;5.190;2023-04-01T10:36:05;14.90;;;8.17;;
37859;SDS011;23698;52.014;5.190;2023-04-01T10:39:26;11.18;;;6.55;;
37859;SDS011;23698;52.014;5.190;2023-04-01T10:42:40;12.05;;;7.55;;
37859;SDS011;23698;52.014;5.190;2023-04-01T10:46:12;14.77;;;9.27;;
37859;SDS011;23698;52.014;5.190;2023-04-01T10:52:52;12.57;;;6.53;;
37859;SDS011;23698;52.014;5.190;2023-04-01T10:56:32;10.27;;;7.53;;
37859;SDS011;23698;52.014;5.190;2023-04-01T10:59:53;14.98;;;7.38;;
37859;SDS011;23698;52.014;5.190;2023-04-01T11:06:58;11.52;;;8.07;;
37859;SDS011;23698;52.014;5.190;2023-04-01T11:13:34;11.85;;;7.22;;
37859;SDS011;23698;52.014;5.190;2023-04-01T11:16:42;9.40;;;5.95;;
37859;SDS011;23698;52.014;5.190;2023-04-01T11:19:47;9.10;;;3.67;;
37859;SDS011;23698;52.014;5.190;2023-04-01T11:22:58;4.88;;;3.17;;
37859;SDS011;23698;52.014;5.190;2023-04-01T11:26:04;6.72;;;3.90;;
37859;SDS011;23698;52.014;5.190;2023-04-01T11:29:20;7.32;;;4.40;;
37859;SDS011;23698;52.014;5.190;2023-04-01T11:32:50;7.78;;;4.20;;
37859;SDS011;23698;52.014;5.190;2023-04-01T11:36:01;5.93;;;4.10;;
37859;SDS011;23698;52.014;5.190;2023-04-01T11:39:04;7.85;;;3.70;;
37859;SDS011;23698;52.014;5.190;2023-04-01T11:42:20;6.07;;;3.83;;
37859;SDS011;23698;52.014;5.190;2023-04-01T11:45:56;6.53;;;4.32;;
37859;SDS011;23698;52.014;5.190;2023-04-01T11:48:54;5.22;;;3.75;;
37859;SDS011;23698;52.014;5.190;2023-04-01T11:52:02;7.00;;;4.40;;
37859;SDS011;23698;52.014;5.190;2023-04-01T11:55:02;5.50;;;4.00;;
37859;SDS011;23698;52.014;5.190;2023-04-01T12:01:25;6.68;;;3.92;;
37859;SDS011;23698;52.014;5.190;2023-04-01T12:04:30;5.60;;;4.20;;
37859;SDS011;23698;52.014;5.190;2023-04-01T12:10:51;6.15;;;3.67;;
37859;SDS011;23698;52.014;5.190;2023-04-01T12:13:49;7.18;;;3.22;;
37859;SDS011;23698;52.014;5.190;2023-04-01T12:16:44;4.53;;;2.97;;
37859;SDS011;23698;52.014;5.190;2023-04-01T12:19:41;4.22;;;2.78;;
37859;SDS011;23698;52.014;5.190;2023-04-01T12:22:38;5.10;;;3.30;;
37859;SDS011;23698;52.014;5.190;2023-04-01T12:25:46;4.95;;;3.30;;
37859;SDS011;23698;52.014;5.190;2023-04-01T12:28:50;5.95;;;4.22;;
37859;SDS011;23698;52.014;5.190;2023-04-01T12:31:51;6.07;;;4.53;;
37859;SDS011;23698;52.014;5.190;2023-04-01T12:38:10;8.27;;;5.57;;
37859;SDS011;23698;52.014;5.190;2023-04-01T12:41:09;7.38;;;5.38;;
37859;SDS011;23698;52.014;5.190;2023-04-01T12:44:16;9.93;;;6.85;;
37859;SDS011;23698;52.014;5.190;2023-04-01T12:47:19;10.70;;;7.38;;
37859;SDS011;23698;52.014;5.190;2023-04-01T12:50:27;10.60;;;7.28;;
37859;SDS011;23698;52.014;5.190;2023-04-01T12:53:26;11.73;;;7.93;;
37859;SDS011;23698;52.014;5.190;2023-04-01T12:56:31;11.98;;;7.43;;
37859;SDS011;23698;52.014;5.190;2023-04-01T12:59:28;15.13;;;8.07;;
37859;SDS011;23698;52.014;5.190;2023-04-01T13:02:40;13.52;;;8.40;;
37859;SDS011;23698;52.014;5.190;2023-04-01T13:09:18;11.73;;;7.00;;
37859;SDS011;23698;52.014;5.190;2023-04-01T13:12:22;13.13;;;7.55;;
37859;SDS011;23698;52.014;5.190;2023-04-01T13:15:24;13.93;;;8.20;;
37859;SDS011;23698;52.014;5.190;2023-04-01T13:18:19;15.80;;;9.13;;
37859;SDS011;23698;52.014;5.190;2023-04-01T13:21:15;16.02;;;9.18;;
37859;SDS011;23698;52.014;5.190;2023-04-01T13:24:09;19.13;;;9.18;;
37859;SDS011;23698;52.014;5.190;2023-04-01T13:27:08;16.73;;;7.93;;
37859;SDS011;23698;52.014;5.190;2023-04-01T13:30:03;14.30;;;8.27;;
37859;SDS011;23698;52.014;5.190;2023-04-01T13:33:12;13.07;;;6.57;;
37859;SDS011;23698;52.014;5.190;2023-04-01T13:36:10;10.77;;;6.93;;
37859;SDS011;23698;52.014;5.190;2023-04-01T13:39:09;9.02;;;6.03;;
37859;SDS011;23698;52.014;5.190;2023-04-01T13:42:26;8.60;;;6.27;;
37859;SDS011;23698;52.014;5.190;2023-04-01T13:45:16;8.30;;;5.93;;
37859;SDS011;23698;52.014;5.190;2023-04-01T13:55:01;7.47;;;4.85;;
37859;SDS011;23698;52.014;5.190;2023-04-01T13:58:15;7.47;;;5.00;;
37859;SDS011;23698;52.014;5.190;2023-04-01T14:01:13;12.05;;;4.57;;
37859;SDS011;23698;52.014;5.190;2023-04-01T14:04:08;8.68;;;5.20;;
37859;SDS011;23698;52.014;5.190;2023-04-01T14:07:12;8.30;;;5.00;;
37859;SDS011;23698;52.014;5.190;2023-04-01T14:10:07;6.78;;;4.75;;
37859;SDS011;23698;52.014;5.190;2023-04-01T14:13:06;8.10;;;5.45;;
37859;SDS011;23698;52.014;5.190;2023-04-01T14:16:14;8.45;;;5.80;;
37859;SDS011;23698;52.014;5.190;2023-04-01T14:19:20;8.77;;;4.38;;
37859;SDS011;23698;52.014;5.190;2023-04-01T14:22:20;8.13;;;4.95;;
37859;SDS011;23698;52.014;5.190;2023-04-01T14:25:29;7.32;;;4.32;;
37859;SDS011;23698;52.014;5.190;2023-04-01T14:28:31;6.18;;;4.25;;
37859;SDS011;23698;52.014;5.190;2023-04-01T14:31:34;5.93;;;3.55;;
37859;SDS011;23698;52.014;5.190;2023-04-01T14:34:32;8.77;;;4.57;;
37859;SDS011;23698;52.014;5.190;2023-04-01T14:37:40;9.95;;;6.35;;
37859;SDS011;23698;52.014;5.190;2023-04-01T14:40:49;12.68;;;5.32;;
37859;SDS011;23698;52.014;5.190;2023-04-01T14:43:56;8.57;;;5.55;;
37859;SDS011;23698;52.014;5.190;2023-04-01T14:47:11;12.02;;;5.88;;
37859;SDS011;23698;52.014;5.190;2023-04-01T14:50:12;14.30;;;6.43;;
37859;SDS011;23698;52.014;5.190;2023-04-01T14:53:11;8.45;;;6.05;;
37859;SDS011;23698;52.014;5.190;2023-04-01T14:56:02;12.52;;;7.03;;
37859;SDS011;23698;52.014;5.190;2023-04-01T14:58:57;14.10;;;8.10;;
37859;SDS011;23698;52.014;5.190;2023-04-01T15:01:47;14.15;;;7.72;;
37859;SDS011;23698;52.014;5.190;2023-04-01T15:04:49;13.13;;;7.80;;
37859;SDS011;23698;52.014;5.190;2023-04-01T15:07:52;16.35;;;8.02;;
37859;SDS011;23698;52.014;5.190;2023-04-01T15:11:00;16.48;;;7.80;;
37859;SDS011;23698;52.014;5.190;2023-04-01T15:17:18;13.35;;;8.15;;
37859;SDS011;23698;52.014;5.190;2023-04-01T15:20:21;13.38;;;8.73;;
37859;SDS011;23698;52.014;5.190;2023-04-01T15:23:21;13.55;;;8.90;;
37859;SDS011;23698;52.014;5.190;2023-04-01T15:26:22;12.18;;;7.97;;
37859;SDS011;23698;52.014;5.190;2023-04-01T15:29:33;11.43;;;7.50;;
37859;SDS011;23698;52.014;5.190;2023-04-01T15:32:29;11.00;;;7.28;;
37859;SDS011;23698;52.014;5.190;2023-04-01T15:35:34;8.18;;;5.30;;
37859;SDS011;23698;52.014;5.190;2023-04-01T15:38:32;9.70;;;5.70;;
37859;SDS011;23698;52.014;5.190;2023-04-01T15:41:27;7.28;;;4.90;;
37859;SDS011;23698;52.014;5.190;2023-04-01T15:47:53;8.30;;;5.35;;
37859;SDS011;23698;52.014;5.190;2023-04-01T15:50:52;10.85;;;5.35;;
37859;SDS011;23698;52.014;5.190;2023-04-01T15:53:45;6.80;;;4.75;;
37859;SDS011;23698;52.014;5.190;2023-04-01T15:56:44;8.23;;;4.88;;
37859;SDS011;23698;52.014;5.190;2023-04-01T15:59:47;7.18;;;4.72;;
37859;SDS011;23698;52.014;5.190;2023-04-01T16:02:46;8.32;;;5.10;;
37859;SDS011;23698;52.014;5.190;2023-04-01T16:05:37;7.50;;;5.28;;
37859;SDS011;23698;52.014;5.190;2023-04-01T16:12:02;7.50;;;5.13;;
37859;SDS011;23698;52.014;5.190;2023-04-01T16:14:56;6.22;;;4.68;;
37859;SDS011;23698;52.014;5.190;2023-04-01T16:21:21;6.70;;;4.80;;
37859;SDS011;23698;52.014;5.190;2023-04-01T16:24:24;7.70;;;4.25;;
37859;SDS011;23698;52.014;5.190;2023-04-01T16:27:21;7.80;;;4.75;;
37859;SDS011;23698;52.014;5.190;2023-04-01T16:30:23;7.40;;;4.78;;
37859;SDS011;23698;52.014;5.190;2023-04-01T16:33:21;7.53;;;4.95;;
37859;SDS011;23698;52.014;5.190;2023-04-01T16:36:20;7.15;;;3.75;;
37859;SDS011;23698;52.014;5.190;2023-04-01T16:42:31;6.30;;;4.10;;
37859;SDS011;23698;52.014;5.190;2023-04-01T16:45:30;6.50;;;4.43;;
37859;SDS011;23698;52.014;5.190;2023-04-01T16:48:22;7.38;;;4.25;;
37859;SDS011;23698;52.014;5.190;2023-04-01T16:51:35;6.63;;;4.90;;
37859;SDS011;23698;52.014;5.190;2023-04-01T16:54:29;5.70;;;3.78;;
37859;SDS011;23698;52.014;5.190;2023-04-01T16:57:25;5.25;;;3.58;;
37859;SDS011;23698;52.014;5.190;2023-04-01T17:00:16;4.38;;;3.13;;
37859;SDS011;23698;52.014;5.190;2023-04-01T17:03:11;4.38;;;3.13;;
37859;SDS011;23698;52.014;5.190;2023-04-01T17:06:12;3.35;;;2.53;;
37859;SDS011;23698;52.014;5.190;2023-04-01T17:09:15;3.72;;;2.63;;
37859;SDS011;23698;52.014;5.190;2023-04-01T17:12:13;5.40;;;3.50;;
37859;SDS011;23698;52.014;5.190;2023-04-01T17:15:10;5.90;;;3.90;;
37859;SDS011;23698;52.014;5.190;2023-04-01T17:18:08;5.40;;;3.70;;
37859;SDS011;23698;52.014;5.190;2023-04-01T17:21:03;7.72;;;4.78;;
37859;SDS011;23698;52.014;5.190;2023-04-01T17:23:58;7.63;;;5.35;;
37859;SDS011;23698;52.014;5.190;2023-04-01T17:26:52;7.15;;;5.20;;
37859;SDS011;23698;52.014;5.190;2023-04-01T17:29:55;8.75;;;5.65;;
37859;SDS011;23698;52.014;5.190;2023-04-01T17:32:54;7.82;;;5.82;;
37859;SDS011;23698;52.014;5.190;2023-04-01T17:35:53;9.82;;;5.68;;
37859;SDS011;23698;52.014;5.190;2023-04-01T17:38:54;7.95;;;5.78;;
37859;SDS011;23698;52.014;5.190;2023-04-01T17:41:48;9.18;;;6.25;;
37859;SDS011;23698;52.014;5.190;2023-04-01T17:44:43;8.68;;;6.85;;
37859;SDS011;23698;52.014;5.190;2023-04-01T17:47:39;8.30;;;6.03;;
37859;SDS011;23698;52.014;5.190;2023-04-01T17:50:42;7.70;;;5.78;;
37859;SDS011;23698;52.014;5.190;2023-04-01T17:53:37;8.20;;;5.10;;
37859;SDS011;23698;52.014;5.190;2023-04-01T17:56:41;6.85;;;5.22;;
37859;SDS011;23698;52.014;5.190;2023-04-01T17:59:35;7.10;;;5.00;;
37859;SDS011;23698;52.014;5.190;2023-04-01T18:02:25;6.28;;;4.95;;
37859;SDS011;23698;52.014;5.190;2023-04-01T18:05:20;5.95;;;4.50;;
37859;SDS011;23698;52.014;5.190;2023-04-01T18:08:39;6.72;;;4.70;;
37859;SDS011;23698;52.014;5.190;2023-04-01T18:11:44;5.25;;;3.78;;
37859;SDS011;23698;52.014;5.190;2023-04-01T18:14:45;6.43;;;4.93;;
37859;SDS011;23698;52.014;5.190;2023-04-01T18:17:47;7.82;;;5.50;;
37859;SDS011;23698;52.014;5.190;2023-04-01T18:20:44;11.43;;;6.13;;
37859;SDS011;23698;52.014;5.190;2023-04-01T18:23:41;8.85;;;6.38;;
37859;SDS011;23698;52.014;5.190;2023-04-01T18:26:47;8.18;;;6.13;;
37859;SDS011;23698;52.014;5.190;2023-04-01T18:29:38;9.43;;;6.55;;
37859;SDS011;23698;52.014;5.190;2023-04-01T18:32:30;11.80;;;6.30;;
37859;SDS011;23698;52.014;5.190;2023-04-01T18:35:25;9.00;;;6.35;;
37859;SDS011;23698;52.014;5.190;2023-04-01T18:38:16;8.65;;;6.20;;
37859;SDS011;23698;52.014;5.190;2023-04-01T18:41:13;8.38;;;6.38;;
37859;SDS011;23698;52.014;5.190;2023-04-01T18:44:12;8.85;;;6.47;;
37859;SDS011;23698;52.014;5.190;2023-04-01T18:47:14;9.32;;;6.63;;
37859;SDS011;23698;52.014;5.190;2023-04-01T18:50:11;9.70;;;7.10;;
37859;SDS011;23698;52.014;5.190;2023-04-01T18:53:13;10.43;;;7.57;;